sensor_id;sensor_type;location;lat;lon;timestamp;P1;durP1;ratioP1;P2;durP2;ratioP2
10450;SDS011;5273;51.290;6.918;2023-07-20T00:02:23;7.60;;;4.38;;
10450;SDS011;5273;51.290;6.918;2023-07-20T00:04:49;7.45;;;4.50;;
10450;SDS011;5273;51.290;6.918;2023-07-20T00:07:16;6.10;;;4.47;;
10450;SDS011;5273;51.290;6.918;2023-07-20T00:09:43;6.90;;;4.25;;
10450;SDS011;5273;51.290;6.918;2023-07-20T00:12:11;7.10;;;4.68;;
10450;SDS011;5273;51.290;6.918;2023-07-20T00:14:38;6.10;;;4.43;;
10450;SDS011;5273;51.290;6.918;2023-07-20T00:17:05;8.88;;;4.75;;
10450;SDS011;5273;51.290;6.918;2023-07-20T00:19:32;6.30;;;4.30;;
10450;SDS011;5273;51.290;6.918;2023-07-20T00:22:00;6.35;;;4.30;;
10450;SDS011;5273;51.290;6.918;2023-07-20T00:24:27;8.75;;;4.28;;
10450;SDS011;5273;51.290;6.918;2023-07-20T00:26:53;5.15;;;4.28;;
10450;SDS011;5273;51.290;6.918;2023-07-20T00:29:21;5.90;;;4.72;;
10450;SDS011;5273;51.290;6.918;2023-07-20T00:31:48;7.25;;;4.50;;
10450;SDS011;5273;51.290;6.918;2023-07-20T00:34:15;5.75;;;5.15;;
10450;SDS011;5273;51.290;6.918;2023-07-20T00:36:42;5.90;;;4.45;;
10450;SDS011;5273;51.290;6.918;2023-07-20T00:39:09;6.68;;;4.72;;
10450;SDS011;5273;51.290;6.918;2023-07-20T00:41:35;6.13;;;4.13;;
10450;SDS011;5273;51.290;6.918;2023-07-20T00:44:02;7.13;;;3.97;;
10450;SDS011;5273;51.290;6.918;2023-07-20T00:46:32;4.85;;;4.32;;
10450;SDS011;5273;51.290;6.918;2023-07-20T00:48:59;4.70;;;3.75;;
10450;SDS011;5273;51.290;6.918;2023-07-20T00:51:26;7.63;;;4.07;;
10450;SDS011;5273;51.290;6.918;2023-07-20T00:53:53;8.20;;;4.10;;
10450;SDS011;5273;51.290;6.918;2023-07-20T00:56:20;7.70;;;4.80;;
10450;SDS011;5273;51.290;6.918;2023-07-20T00:58:48;6.15;;;3.85;;
10450;SDS011;5273;51.290;6.918;2023-07-20T01:01:15;6.03;;;4.30;;
10450;SDS011;5273;51.290;6.918;2023-07-20T01:03:43;6.45;;;4.18;;
10450;SDS011;5273;51.290;6.918;2023-07-20T01:06:12;5.78;;;4.45;;
10450;SDS011;5273;51.290;6.918;2023-07-20T01:08:47;7.88;;;4.45;;
10450;SDS011;5273;51.290;6.918;2023-07-20T01:11:21;7.22;;;4.50;;
10450;SDS011;5273;51.290;6.918;2023-07-20T01:13:51;7.70;;;4.80;;
10450;SDS011;5273;51.290;6.918;2023-07-20T01:16:18;6.72;;;4.22;;
10450;SDS011;5273;51.290;6.918;2023-07-20T01:18:46;6.70;;;4.32;;
10450;SDS011;5273;51.290;6.918;2023-07-20T01:21:15;6.35;;;4.50;;
10450;SDS011;5273;51.290;6.918;2023-07-20T01:24:00;5.32;;;4.35;;
10450;SDS011;5273;51.290;6.918;2023-07-20T01:26:47;6.70;;;4.03;;
10450;SDS011;5273;51.290;6.918;2023-07-20T01:29:36;6.38;;;4.38;;
10450;SDS011;5273;51.290;6.918;2023-07-20T01:32:22;6.35;;;4.32;;
10450;SDS011;5273;51.290;6.918;2023-07-20T01:34:51;6.75;;;4.72;;
10450;SDS011;5273;51.290;6.918;2023-07-20T01:37:20;6.03;;;4.35;;
10450;SDS011;5273;51.290;6.918;2023-07-20T01:39:51;5.10;;;4.32;;
10450;SDS011;5273;51.290;6.918;2023-07-20T01:42:20;5.57;;;4.55;;
10450;SDS011;5273;51.290;6.918;2023-07-20T01:44:50;6.18;;;4.30;;
10450;SDS011;5273;51.290;6.918;2023-07-20T01:47:17;5.32;;;4.47;;
10450;SDS011;5273;51.290;6.918;2023-07-20T01:49:46;4.55;;;3.90;;
10450;SDS011;5273;51.290;6.918;2023-07-20T01:52:12;9.35;;;5.15;;
10450;SDS011;5273;51.290;6.918;2023-07-20T01:54:40;7.30;;;4.20;;
10450;SDS011;5273;51.290;6.918;2023-07-20T01:57:07;6.38;;;4.07;;
10450;SDS011;5273;51.290;6.918;2023-07-20T01:59:33;7.60;;;4.20;;
10450;SDS011;5273;51.290;6.918;2023-07-20T02:02:00;5.75;;;4.97;;
10450;SDS011;5273;51.290;6.918;2023-07-20T02:04:27;7.43;;;4.35;;
10450;SDS011;5273;51.290;6.918;2023-07-20T02:06:55;5.45;;;4.30;;
10450;SDS011;5273;51.290;6.918;2023-07-20T02:09:22;7.07;;;4.20;;
10450;SDS011;5273;51.290;6.918;2023-07-20T02:11:49;6.63;;;4.32;;
10450;SDS011;5273;51.290;6.918;2023-07-20T02:14:16;4.93;;;4.38;;
10450;SDS011;5273;51.290;6.918;2023-07-20T02:16:43;8.43;;;4.55;;
10450;SDS011;5273;51.290;6.918;2023-07-20T02:19:10;6.70;;;4.30;;
10450;SDS011;5273;51.290;6.918;2023-07-20T02:21:36;7.78;;;4.68;;
10450;SDS011;5273;51.290;6.918;2023-07-20T02:24:05;6.15;;;4.75;;
10450;SDS011;5273;51.290;6.918;2023-07-20T02:26:32;5.13;;;4.60;;
10450;SDS011;5273;51.290;6.918;2023-07-20T02:28:59;6.82;;;4.55;;
10450;SDS011;5273;51.290;6.918;2023-07-20T02:31:29;6.32;;;4.65;;
10450;SDS011;5273;51.290;6.918;2023-07-20T02:33:55;9.20;;;5.05;;
10450;SDS011;5273;51.290;6.918;2023-07-20T02:36:22;7.05;;;4.85;;
10450;SDS011;5273;51.290;6.918;2023-07-20T02:38:49;6.13;;;4.40;;
10450;SDS011;5273;51.290;6.918;2023-07-20T02:41:17;5.80;;;4.38;;
10450;SDS011;5273;51.290;6.918;2023-07-20T02:43:44;9.25;;;4.60;;
10450;SDS011;5273;51.290;6.918;2023-07-20T02:46:11;6.32;;;4.95;;
10450;SDS011;5273;51.290;6.918;2023-07-20T02:48:37;7.47;;;4.32;;
10450;SDS011;5273;51.290;6.918;2023-07-20T02:51:04;8.93;;;4.75;;
10450;SDS011;5273;51.290;6.918;2023-07-20T02:53:32;8.15;;;4.00;;
10450;SDS011;5273;51.290;6.918;2023-07-20T02:55:59;4.97;;;4.47;;
10450;SDS011;5273;51.290;6.918;2023-07-20T02:58:27;7.72;;;4.57;;
10450;SDS011;5273;51.290;6.918;2023-07-20T03:00:54;8.85;;;4.40;;
10450;SDS011;5273;51.290;6.918;2023-07-20T03:03:21;5.25;;;4.43;;
10450;SDS011;5273;51.290;6.918;2023-07-20T03:05:48;5.80;;;3.97;;
10450;SDS011;5273;51.290;6.918;2023-07-20T03:08:19;6.40;;;4.03;;
10450;SDS011;5273;51.290;6.918;2023-07-20T03:10:46;7.25;;;4.25;;
10450;SDS011;5273;51.290;6.918;2023-07-20T03:13:13;7.18;;;4.32;;
10450;SDS011;5273;51.290;6.918;2023-07-20T03:15:42;6.10;;;4.40;;
10450;SDS011;5273;51.290;6.918;2023-07-20T03:18:09;10.27;;;5.32;;
10450;SDS011;5273;51.290;6.918;2023-07-20T03:20:36;8.18;;;4.97;;
10450;SDS011;5273;51.290;6.918;2023-07-20T03:23:02;8.90;;;4.88;;
10450;SDS011;5273;51.290;6.918;2023-07-20T03:25:29;5.47;;;4.97;;
10450;SDS011;5273;51.290;6.918;2023-07-20T03:27:56;6.53;;;5.35;;
10450;SDS011;5273;51.290;6.918;2023-07-20T03:30:23;7.20;;;4.72;;
10450;SDS011;5273;51.290;6.918;2023-07-20T03:32:52;6.97;;;4.93;;
10450;SDS011;5273;51.290;6.918;2023-07-20T03:35:18;7.03;;;4.95;;
10450;SDS011;5273;51.290;6.918;2023-07-20T03:37:45;8.82;;;5.13;;
10450;SDS011;5273;51.290;6.918;2023-07-20T03:40:12;6.13;;;4.57;;
10450;SDS011;5273;51.290;6.918;2023-07-20T03:42:40;6.38;;;4.50;;
10450;SDS011;5273;51.290;6.918;2023-07-20T03:45:07;5.97;;;4.65;;
10450;SDS011;5273;51.290;6.918;2023-07-20T03:47:34;8.80;;;5.13;;
10450;SDS011;5273;51.290;6.918;2023-07-20T03:50:02;7.65;;;4.90;;
10450;SDS011;5273;51.290;6.918;2023-07-20T03:52:30;9.43;;;5.07;;
10450;SDS011;5273;51.290;6.918;2023-07-20T03:54:57;6.72;;;5.03;;
10450;SDS011;5273;51.290;6.918;2023-07-20T03:57:24;9.50;;;5.03;;
10450;SDS011;5273;51.290;6.918;2023-07-20T03:59:51;7.00;;;4.78;;
10450;SDS011;5273;51.290;6.918;2023-07-20T04:02:17;7.20;;;4.80;;
10450;SDS011;5273;51.290;6.918;2023-07-20T04:04:44;8.00;;;4.82;;
10450;SDS011;5273;51.290;6.918;2023-07-20T04:07:12;6.90;;;4.60;;
10450;SDS011;5273;51.290;6.918;2023-07-20T04:09:39;6.13;;;4.95;;
10450;SDS011;5273;51.290;6.918;2023-07-20T04:12:07;11.82;;;6.60;;
10450;SDS011;5273;51.290;6.918;2023-07-20T04:14:34;8.35;;;6.13;;
10450;SDS011;5273;51.290;6.918;2023-07-20T04:17:00;9.23;;;6.57;;
10450;SDS011;5273;51.290;6.918;2023-07-20T04:19:28;11.13;;;6.65;;
10450;SDS011;5273;51.290;6.918;2023-07-20T04:21:55;9.90;;;6.20;;
10450;SDS011;5273;51.290;6.918;2023-07-20T04:24:23;9.80;;;6.50;;
10450;SDS011;5273;51.290;6.918;2023-07-20T04:26:50;7.95;;;6.72;;
10450;SDS011;5273;51.290;6.918;2023-07-20T04:29:17;15.80;;;6.72;;
10450;SDS011;5273;51.290;6.918;2023-07-20T04:31:43;10.70;;;7.72;;
10450;SDS011;5273;51.290;6.918;2023-07-20T04:34:10;12.48;;;8.70;;
10450;SDS011;5273;51.290;6.918;2023-07-20T04:36:37;14.80;;;8.25;;
10450;SDS011;5273;51.290;6.918;2023-07-20T04:39:04;16.35;;;8.82;;
10450;SDS011;5273;51.290;6.918;2023-07-20T04:41:34;11.80;;;8.52;;
10450;SDS011;5273;51.290;6.918;2023-07-20T04:44:01;15.20;;;8.82;;
10450;SDS011;5273;51.290;6.918;2023-07-20T04:46:28;12.95;;;8.77;;
10450;SDS011;5273;51.290;6.918;2023-07-20T04:48:55;12.55;;;9.65;;
10450;SDS011;5273;51.290;6.918;2023-07-20T04:51:22;14.27;;;9.20;;
10450;SDS011;5273;51.290;6.918;2023-07-20T04:53:49;15.05;;;9.55;;
10450;SDS011;5273;51.290;6.918;2023-07-20T04:56:16;13.40;;;10.48;;
10450;SDS011;5273;51.290;6.918;2023-07-20T04:58:44;13.45;;;10.85;;
10450;SDS011;5273;51.290;6.918;2023-07-20T05:01:11;17.95;;;11.18;;
10450;SDS011;5273;51.290;6.918;2023-07-20T05:03:38;17.70;;;12.32;;
10450;SDS011;5273;51.290;6.918;2023-07-20T05:06:05;17.77;;;12.15;;
10450;SDS011;5273;51.290;6.918;2023-07-20T05:08:32;18.00;;;12.82;;
10450;SDS011;5273;51.290;6.918;2023-07-20T05:10:59;17.10;;;11.48;;
10450;SDS011;5273;51.290;6.918;2023-07-20T05:13:26;18.75;;;13.32;;
10450;SDS011;5273;51.290;6.918;2023-07-20T05:15:54;19.17;;;13.40;;
10450;SDS011;5273;51.290;6.918;2023-07-20T05:18:21;20.23;;;13.50;;
10450;SDS011;5273;51.290;6.918;2023-07-20T05:20:49;20.48;;;13.05;;
10450;SDS011;5273;51.290;6.918;2023-07-20T05:23:17;20.65;;;12.85;;
10450;SDS011;5273;51.290;6.918;2023-07-20T05:25:44;16.92;;;13.55;;
10450;SDS011;5273;51.290;6.918;2023-07-20T05:28:11;20.20;;;14.30;;
10450;SDS011;5273;51.290;6.918;2023-07-20T05:30:39;16.77;;;13.73;;
10450;SDS011;5273;51.290;6.918;2023-07-20T05:33:07;17.63;;;13.88;;
10450;SDS011;5273;51.290;6.918;2023-07-20T05:35:35;16.42;;;12.75;;
10450;SDS011;5273;51.290;6.918;2023-07-20T05:38:02;18.70;;;12.95;;
10450;SDS011;5273;51.290;6.918;2023-07-20T05:40:31;17.75;;;14.48;;
10450;SDS011;5273;51.290;6.918;2023-07-20T05:42:58;16.98;;;14.18;;
10450;SDS011;5273;51.290;6.918;2023-07-20T05:45:25;20.58;;;13.98;;
10450;SDS011;5273;51.290;6.918;2023-07-20T05:47:52;17.95;;;13.73;;
10450;SDS011;5273;51.290;6.918;2023-07-20T05:50:20;18.02;;;13.27;;
10450;SDS011;5273;51.290;6.918;2023-07-20T05:52:47;17.15;;;13.20;;
10450;SDS011;5273;51.290;6.918;2023-07-20T05:55:14;18.02;;;14.10;;
10450;SDS011;5273;51.290;6.918;2023-07-20T05:57:41;18.23;;;13.55;;
10450;SDS011;5273;51.290;6.918;2023-07-20T06:00:08;18.48;;;14.18;;
10450;SDS011;5273;51.290;6.918;2023-07-20T06:02:37;16.67;;;13.50;;
10450;SDS011;5273;51.290;6.918;2023-07-20T06:05:04;19.20;;;12.90;;
10450;SDS011;5273;51.290;6.918;2023-07-20T06:07:35;19.35;;;13.80;;
10450;SDS011;5273;51.290;6.918;2023-07-20T06:10:02;16.38;;;13.60;;
10450;SDS011;5273;51.290;6.918;2023-07-20T06:12:30;15.52;;;13.05;;
10450;SDS011;5273;51.290;6.918;2023-07-20T06:14:57;18.77;;;14.65;;
10450;SDS011;5273;51.290;6.918;2023-07-20T06:17:27;18.40;;;16.50;;
10450;SDS011;5273;51.290;6.918;2023-07-20T06:19:54;18.75;;;16.20;;
10450;SDS011;5273;51.290;6.918;2023-07-20T06:22:21;21.02;;;17.90;;
10450;SDS011;5273;51.290;6.918;2023-07-20T06:24:49;18.67;;;16.63;;
10450;SDS011;5273;51.290;6.918;2023-07-20T06:27:16;17.27;;;15.48;;
10450;SDS011;5273;51.290;6.918;2023-07-20T06:29:43;16.42;;;14.90;;
10450;SDS011;5273;51.290;6.918;2023-07-20T06:32:09;16.25;;;14.55;;
10450;SDS011;5273;51.290;6.918;2023-07-20T06:34:36;15.10;;;13.55;;
10450;SDS011;5273;51.290;6.918;2023-07-20T06:37:03;15.40;;;13.93;;
10450;SDS011;5273;51.290;6.918;2023-07-20T06:39:30;15.82;;;14.13;;
10450;SDS011;5273;51.290;6.918;2023-07-20T06:41:58;18.67;;;15.85;;
10450;SDS011;5273;51.290;6.918;2023-07-20T06:44:25;18.65;;;16.65;;
10450;SDS011;5273;51.290;6.918;2023-07-20T06:46:52;21.40;;;18.23;;
10450;SDS011;5273;51.290;6.918;2023-07-20T06:49:25;19.23;;;17.05;;
10450;SDS011;5273;51.290;6.918;2023-07-20T06:51:52;18.35;;;16.40;;
10450;SDS011;5273;51.290;6.918;2023-07-20T06:54:19;17.08;;;14.70;;
10450;SDS011;5273;51.290;6.918;2023-07-20T06:56:46;14.20;;;12.90;;
10450;SDS011;5273;51.290;6.918;2023-07-20T06:59:14;13.27;;;11.98;;
10450;SDS011;5273;51.290;6.918;2023-07-20T07:01:41;12.68;;;9.98;;
10450;SDS011;5273;51.290;6.918;2023-07-20T07:04:08;9.90;;;8.90;;
10450;SDS011;5273;51.290;6.918;2023-07-20T07:06:35;8.07;;;7.38;;
10450;SDS011;5273;51.290;6.918;2023-07-20T07:09:02;7.68;;;6.97;;
10450;SDS011;5273;51.290;6.918;2023-07-20T07:11:30;7.95;;;7.15;;
10450;SDS011;5273;51.290;6.918;2023-07-20T07:13:57;7.65;;;6.95;;
10450;SDS011;5273;51.290;6.918;2023-07-20T07:16:25;7.38;;;6.75;;
10450;SDS011;5273;51.290;6.918;2023-07-20T07:18:52;8.90;;;7.55;;
10450;SDS011;5273;51.290;6.918;2023-07-20T07:21:19;8.60;;;7.80;;
10450;SDS011;5273;51.290;6.918;2023-07-20T07:23:46;9.00;;;7.70;;
10450;SDS011;5273;51.290;6.918;2023-07-20T07:26:13;8.02;;;7.32;;
10450;SDS011;5273;51.290;6.918;2023-07-20T07:28:40;7.63;;;6.93;;
10450;SDS011;5273;51.290;6.918;2023-07-20T07:31:07;6.15;;;5.50;;
10450;SDS011;5273;51.290;6.918;2023-07-20T07:33:35;6.30;;;5.80;;
10450;SDS011;5273;51.290;6.918;2023-07-20T07:36:02;4.93;;;4.50;;
10450;SDS011;5273;51.290;6.918;2023-07-20T07:38:29;5.18;;;4.72;;
10450;SDS011;5273;51.290;6.918;2023-07-20T07:40:57;4.35;;;4.00;;
10450;SDS011;5273;51.290;6.918;2023-07-20T07:43:24;4.47;;;4.07;;
10450;SDS011;5273;51.290;6.918;2023-07-20T07:45:53;6.47;;;5.57;;
10450;SDS011;5273;51.290;6.918;2023-07-20T07:48:20;6.97;;;6.40;;
10450;SDS011;5273;51.290;6.918;2023-07-20T07:50:48;4.30;;;4.00;;
10450;SDS011;5273;51.290;6.918;2023-07-20T07:53:16;4.30;;;3.90;;
10450;SDS011;5273;51.290;6.918;2023-07-20T07:55:43;5.10;;;4.60;;
10450;SDS011;5273;51.290;6.918;2023-07-20T07:58:10;4.82;;;4.43;;
10450;SDS011;5273;51.290;6.918;2023-07-20T08:00:37;6.35;;;5.78;;
10450;SDS011;5273;51.290;6.918;2023-07-20T08:03:03;6.15;;;5.50;;
10450;SDS011;5273;51.290;6.918;2023-07-20T08:05:32;4.40;;;4.10;;
10450;SDS011;5273;51.290;6.918;2023-07-20T08:08:01;4.75;;;4.07;;
10450;SDS011;5273;51.290;6.918;2023-07-20T08:10:28;4.55;;;4.07;;
10450;SDS011;5273;51.290;6.918;2023-07-20T08:12:55;4.00;;;3.70;;
10450;SDS011;5273;51.290;6.918;2023-07-20T08:15:22;4.50;;;4.10;;
10450;SDS011;5273;51.290;6.918;2023-07-20T08:17:49;4.30;;;3.90;;
10450;SDS011;5273;51.290;6.918;2023-07-20T08:20:17;4.22;;;3.72;;
10450;SDS011;5273;51.290;6.918;2023-07-20T08:22:44;3.80;;;3.50;;
10450;SDS011;5273;51.290;6.918;2023-07-20T08:25:12;5.03;;;4.53;;
10450;SDS011;5273;51.290;6.918;2023-07-20T08:27:39;5.63;;;4.88;;
10450;SDS011;5273;51.290;6.918;2023-07-20T08:30:07;7.80;;;5.22;;
10450;SDS011;5273;51.290;6.918;2023-07-20T08:32:34;6.82;;;6.18;;
10450;SDS011;5273;51.290;6.918;2023-07-20T08:35:01;8.20;;;6.38;;
10450;SDS011;5273;51.290;6.918;2023-07-20T08:37:28;6.95;;;6.25;;
10450;SDS011;5273;51.290;6.918;2023-07-20T08:39:55;6.07;;;5.57;;
10450;SDS011;5273;51.290;6.918;2023-07-20T08:42:23;6.63;;;4.50;;
10450;SDS011;5273;51.290;6.918;2023-07-20T08:44:50;4.55;;;4.10;;
10450;SDS011;5273;51.290;6.918;2023-07-20T08:47:20;5.18;;;4.68;;
10450;SDS011;5273;51.290;6.918;2023-07-20T08:49:48;4.60;;;4.20;;
10450;SDS011;5273;51.290;6.918;2023-07-20T08:52:15;3.90;;;3.60;;
10450;SDS011;5273;51.290;6.918;2023-07-20T08:54:42;4.00;;;3.70;;
10450;SDS011;5273;51.290;6.918;2023-07-20T08:57:10;4.70;;;4.35;;
10450;SDS011;5273;51.290;6.918;2023-07-20T08:59:41;5.78;;;4.80;;
10450;SDS011;5273;51.290;6.918;2023-07-20T09:02:10;4.90;;;4.40;;
10450;SDS011;5273;51.290;6.918;2023-07-20T09:04:42;4.30;;;4.00;;
10450;SDS011;5273;51.290;6.918;2023-07-20T09:07:11;4.03;;;3.72;;
10450;SDS011;5273;51.290;6.918;2023-07-20T09:09:40;5.20;;;4.80;;
10450;SDS011;5273;51.290;6.918;2023-07-20T09:12:12;6.70;;;4.95;;
10450;SDS011;5273;51.290;6.918;2023-07-20T09:14:43;5.53;;;5.03;;
10450;SDS011;5273;51.290;6.918;2023-07-20T09:17:12;5.20;;;4.70;;
10450;SDS011;5273;51.290;6.918;2023-07-20T09:19:45;4.78;;;4.25;;
10450;SDS011;5273;51.290;6.918;2023-07-20T09:22:12;2.40;;;2.20;;
10450;SDS011;5273;51.290;6.918;2023-07-20T09:24:39;3.42;;;2.00;;
10450;SDS011;5273;51.290;6.918;2023-07-20T09:27:08;3.85;;;3.05;;
10450;SDS011;5273;51.290;6.918;2023-07-20T09:29:39;3.70;;;2.92;;
10450;SDS011;5273;51.290;6.918;2023-07-20T09:32:17;4.03;;;3.03;;
10450;SDS011;5273;51.290;6.918;2023-07-20T09:34:45;3.65;;;3.35;;
10450;SDS011;5273;51.290;6.918;2023-07-20T09:37:12;4.25;;;3.35;;
10450;SDS011;5273;51.290;6.918;2023-07-20T09:39:42;3.50;;;3.20;;
10450;SDS011;5273;51.290;6.918;2023-07-20T09:42:10;3.42;;;3.13;;
10450;SDS011;5273;51.290;6.918;2023-07-20T09:44:38;3.38;;;3.08;;
10450;SDS011;5273;51.290;6.918;2023-07-20T09:47:06;3.38;;;3.08;;
10450;SDS011;5273;51.290;6.918;2023-07-20T09:49:34;3.78;;;2.90;;
10450;SDS011;5273;51.290;6.918;2023-07-20T09:52:06;2.70;;;2.50;;
10450;SDS011;5273;51.290;6.918;2023-07-20T09:54:34;2.20;;;2.05;;
10450;SDS011;5273;51.290;6.918;2023-07-20T09:57:03;2.25;;;2.03;;
10450;SDS011;5273;51.290;6.918;2023-07-20T09:59:33;2.83;;;2.10;;
10450;SDS011;5273;51.290;6.918;2023-07-20T10:02:00;2.28;;;1.75;;
10450;SDS011;5273;51.290;6.918;2023-07-20T10:04:33;2.17;;;1.65;;
10450;SDS011;5273;51.290;6.918;2023-07-20T10:07:02;1.50;;;1.40;;
10450;SDS011;5273;51.290;6.918;2023-07-20T10:09:35;1.70;;;1.60;;
10450;SDS011;5273;51.290;6.918;2023-07-20T10:12:05;1.60;;;1.50;;
10450;SDS011;5273;51.290;6.918;2023-07-20T10:14:33;1.73;;;1.52;;
10450;SDS011;5273;51.290;6.918;2023-07-20T10:17:04;1.40;;;1.30;;
10450;SDS011;5273;51.290;6.918;2023-07-20T10:19:38;1.92;;;1.83;;
10450;SDS011;5273;51.290;6.918;2023-07-20T10:22:10;2.97;;;2.20;;
10450;SDS011;5273;51.290;6.918;2023-07-20T10:24:40;6.13;;;2.15;;
10450;SDS011;5273;51.290;6.918;2023-07-20T10:27:12;2.05;;;1.90;;
10450;SDS011;5273;51.290;6.918;2023-07-20T10:29:39;3.95;;;2.20;;
10450;SDS011;5273;51.290;6.918;2023-07-20T10:32:07;2.88;;;2.17;;
10450;SDS011;5273;51.290;6.918;2023-07-20T10:34:36;1.90;;;1.80;;
10450;SDS011;5273;51.290;6.918;2023-07-20T10:37:04;2.60;;;1.95;;
10450;SDS011;5273;51.290;6.918;2023-07-20T10:39:31;2.80;;;1.75;;
10450;SDS011;5273;51.290;6.918;2023-07-20T10:41:59;1.50;;;1.38;;
10450;SDS011;5273;51.290;6.918;2023-07-20T10:44:28;1.65;;;1.30;;
10450;SDS011;5273;51.290;6.918;2023-07-20T10:46:58;2.28;;;1.35;;
10450;SDS011;5273;51.290;6.918;2023-07-20T10:49:26;1.05;;;0.98;;
10450;SDS011;5273;51.290;6.918;2023-07-20T10:51:58;0.98;;;0.98;;
10450;SDS011;5273;51.290;6.918;2023-07-20T10:54:33;0.88;;;0.88;;
10450;SDS011;5273;51.290;6.918;2023-07-20T10:59:49;2.35;;;0.95;;
10450;SDS011;5273;51.290;6.918;2023-07-20T11:02:17;1.33;;;1.20;;
10450;SDS011;5273;51.290;6.918;2023-07-20T11:04:45;1.55;;;1.45;;
10450;SDS011;5273;51.290;6.918;2023-07-20T11:07:16;1.25;;;1.00;;
10450;SDS011;5273;51.290;6.918;2023-07-20T11:09:43;1.27;;;1.20;;
10450;SDS011;5273;51.290;6.918;2023-07-20T11:12:11;1.17;;;1.08;;
10450;SDS011;5273;51.290;6.918;2023-07-20T11:14:40;2.17;;;1.42;;
10450;SDS011;5273;51.290;6.918;2023-07-20T11:17:11;2.83;;;1.50;;
10450;SDS011;5273;51.290;6.918;2023-07-20T11:19:39;1.30;;;1.20;;
10450;SDS011;5273;51.290;6.918;2023-07-20T11:22:07;1.55;;;1.30;;
10450;SDS011;5273;51.290;6.918;2023-07-20T11:24:39;1.65;;;1.42;;
10450;SDS011;5273;51.290;6.918;2023-07-20T11:27:06;1.98;;;1.60;;
10450;SDS011;5273;51.290;6.918;2023-07-20T11:29:33;1.40;;;1.30;;
10450;SDS011;5273;51.290;6.918;2023-07-20T11:32:01;1.67;;;1.17;;
10450;SDS011;5273;51.290;6.918;2023-07-20T11:34:29;1.60;;;1.38;;
10450;SDS011;5273;51.290;6.918;2023-07-20T11:36:58;1.25;;;1.15;;
10450;SDS011;5273;51.290;6.918;2023-07-20T11:39:26;1.20;;;1.10;;
10450;SDS011;5273;51.290;6.918;2023-07-20T11:41:56;1.63;;;1.20;;
10450;SDS011;5273;51.290;6.918;2023-07-20T11:44:23;2.25;;;1.20;;
10450;SDS011;5273;51.290;6.918;2023-07-20T11:46:59;1.40;;;0.98;;
10450;SDS011;5273;51.290;6.918;2023-07-20T11:49:27;1.02;;;0.93;;
10450;SDS011;5273;51.290;6.918;2023-07-20T11:51:54;2.13;;;1.27;;
10450;SDS011;5273;51.290;6.918;2023-07-20T11:54:22;1.08;;;0.90;;
10450;SDS011;5273;51.290;6.918;2023-07-20T11:56:53;1.67;;;1.00;;
10450;SDS011;5273;51.290;6.918;2023-07-20T11:59:21;2.67;;;1.00;;
10450;SDS011;5273;51.290;6.918;2023-07-20T12:01:49;1.95;;;1.10;;
10450;SDS011;5273;51.290;6.918;2023-07-20T12:04:16;1.20;;;0.85;;
10450;SDS011;5273;51.290;6.918;2023-07-20T12:06:44;1.50;;;0.88;;
10450;SDS011;5273;51.290;6.918;2023-07-20T12:09:13;1.83;;;1.10;;
10450;SDS011;5273;51.290;6.918;2023-07-20T12:11:42;1.15;;;1.13;;
10450;SDS011;5273;51.290;6.918;2023-07-20T12:14:10;1.13;;;0.73;;
10450;SDS011;5273;51.290;6.918;2023-07-20T12:16:39;1.17;;;0.90;;
10450;SDS011;5273;51.290;6.918;2023-07-20T12:19:06;0.70;;;0.70;;
10450;SDS011;5273;51.290;6.918;2023-07-20T12:21:34;2.35;;;1.10;;
10450;SDS011;5273;51.290;6.918;2023-07-20T12:24:02;1.60;;;1.50;;
10450;SDS011;5273;51.290;6.918;2023-07-20T12:26:30;2.00;;;0.95;;
10450;SDS011;5273;51.290;6.918;2023-07-20T12:28:57;1.20;;;1.10;;
10450;SDS011;5273;51.290;6.918;2023-07-20T12:31:25;0.70;;;0.70;;
10450;SDS011;5273;51.290;6.918;2023-07-20T12:33:54;1.73;;;0.65;;
10450;SDS011;5273;51.290;6.918;2023-07-20T12:36:22;1.58;;;0.80;;
10450;SDS011;5273;51.290;6.918;2023-07-20T12:38:49;0.90;;;0.90;;
10450;SDS011;5273;51.290;6.918;2023-07-20T12:41:16;1.17;;;0.80;;
10450;SDS011;5273;51.290;6.918;2023-07-20T12:43:43;1.38;;;1.00;;
10450;SDS011;5273;51.290;6.918;2023-07-20T12:46:11;1.38;;;1.02;;
10450;SDS011;5273;51.290;6.918;2023-07-20T12:48:39;1.13;;;0.95;;
10450;SDS011;5273;51.290;6.918;2023-07-20T12:51:08;1.05;;;0.85;;
10450;SDS011;5273;51.290;6.918;2023-07-20T12:53:36;1.00;;;0.90;;
10450;SDS011;5273;51.290;6.918;2023-07-20T12:56:04;1.13;;;1.02;;
10450;SDS011;5273;51.290;6.918;2023-07-20T12:58:31;0.50;;;0.50;;
10450;SDS011;5273;51.290;6.918;2023-07-20T13:00:58;1.25;;;0.75;;
10450;SDS011;5273;51.290;6.918;2023-07-20T13:03:24;3.13;;;0.80;;
10450;SDS011;5273;51.290;6.918;2023-07-20T13:05:51;1.05;;;0.77;;
10450;SDS011;5273;51.290;6.918;2023-07-20T13:08:19;1.25;;;0.95;;
10450;SDS011;5273;51.290;6.918;2023-07-20T13:10:50;0.85;;;0.85;;
10450;SDS011;5273;51.290;6.918;2023-07-20T13:13:17;1.30;;;1.20;;
10450;SDS011;5273;51.290;6.918;2023-07-20T13:15:44;1.30;;;0.75;;
10450;SDS011;5273;51.290;6.918;2023-07-20T13:18:11;1.00;;;0.90;;
10450;SDS011;5273;51.290;6.918;2023-07-20T13:20:38;2.30;;;1.10;;
10450;SDS011;5273;51.290;6.918;2023-07-20T13:23:05;1.92;;;0.95;;
10450;SDS011;5273;51.290;6.918;2023-07-20T13:25:33;1.80;;;1.40;;
10450;SDS011;5273;51.290;6.918;2023-07-20T13:28:00;2.50;;;1.50;;
10450;SDS011;5273;51.290;6.918;2023-07-20T13:30:27;1.42;;;1.30;;
10450;SDS011;5273;51.290;6.918;2023-07-20T13:32:54;1.35;;;1.23;;
10450;SDS011;5273;51.290;6.918;2023-07-20T13:35:21;2.70;;;1.40;;
10450;SDS011;5273;51.290;6.918;2023-07-20T13:37:48;1.35;;;1.25;;
10450;SDS011;5273;51.290;6.918;2023-07-20T13:40:15;1.95;;;1.20;;
10450;SDS011;5273;51.290;6.918;2023-07-20T13:42:45;2.92;;;1.50;;
10450;SDS011;5273;51.290;6.918;2023-07-20T13:45:12;1.00;;;1.00;;
10450;SDS011;5273;51.290;6.918;2023-07-20T13:47:39;1.05;;;1.05;;
10450;SDS011;5273;51.290;6.918;2023-07-20T13:50:06;3.20;;;1.10;;
10450;SDS011;5273;51.290;6.918;2023-07-20T13:52:33;1.92;;;0.98;;
10450;SDS011;5273;51.290;6.918;2023-07-20T13:55:01;1.33;;;1.20;;
10450;SDS011;5273;51.290;6.918;2023-07-20T13:57:29;1.42;;;1.10;;
10450;SDS011;5273;51.290;6.918;2023-07-20T13:59:57;1.40;;;1.00;;
10450;SDS011;5273;51.290;6.918;2023-07-20T14:02:25;1.70;;;0.85;;
10450;SDS011;5273;51.290;6.918;2023-07-20T14:04:52;1.92;;;1.40;;
10450;SDS011;5273;51.290;6.918;2023-07-20T14:07:20;1.35;;;0.80;;
10450;SDS011;5273;51.290;6.918;2023-07-20T14:09:47;1.15;;;1.05;;
10450;SDS011;5273;51.290;6.918;2023-07-20T14:12:14;1.55;;;0.93;;
10450;SDS011;5273;51.290;6.918;2023-07-20T14:14:41;1.15;;;1.00;;
10450;SDS011;5273;51.290;6.918;2023-07-20T14:17:09;1.15;;;0.95;;
10450;SDS011;5273;51.290;6.918;2023-07-20T14:19:37;1.30;;;0.90;;
10450;SDS011;5273;51.290;6.918;2023-07-20T14:22:04;1.23;;;0.77;;
10450;SDS011;5273;51.290;6.918;2023-07-20T14:24:31;0.93;;;0.93;;
10450;SDS011;5273;51.290;6.918;2023-07-20T14:26:58;1.70;;;1.00;;
10450;SDS011;5273;51.290;6.918;2023-07-20T14:29:25;2.53;;;1.48;;
10450;SDS011;5273;51.290;6.918;2023-07-20T14:31:52;1.23;;;1.13;;
10450;SDS011;5273;51.290;6.918;2023-07-20T14:34:21;1.77;;;1.02;;
10450;SDS011;5273;51.290;6.918;2023-07-20T14:36:48;2.65;;;1.20;;
10450;SDS011;5273;51.290;6.918;2023-07-20T14:39:15;1.30;;;1.20;;
10450;SDS011;5273;51.290;6.918;2023-07-20T14:41:42;2.05;;;1.05;;
10450;SDS011;5273;51.290;6.918;2023-07-20T14:44:09;2.28;;;1.08;;
10450;SDS011;5273;51.290;6.918;2023-07-20T14:46:36;1.40;;;1.05;;
10450;SDS011;5273;51.290;6.918;2023-07-20T14:49:02;2.15;;;1.00;;
10450;SDS011;5273;51.290;6.918;2023-07-20T14:51:31;1.48;;;1.05;;
10450;SDS011;5273;51.290;6.918;2023-07-20T14:53:58;1.75;;;1.17;;
10450;SDS011;5273;51.290;6.918;2023-07-20T14:56:26;1.40;;;1.05;;
10450;SDS011;5273;51.290;6.918;2023-07-20T14:58:52;1.05;;;0.80;;
10450;SDS011;5273;51.290;6.918;2023-07-20T15:01:19;2.35;;;1.20;;
10450;SDS011;5273;51.290;6.918;2023-07-20T15:03:46;0.90;;;0.90;;
10450;SDS011;5273;51.290;6.918;2023-07-20T15:06:15;1.05;;;0.93;;